Time;durP1;ratioP1;P1;durP2;ratioP2;P2;SDS_P1;SDS_P2;PMS_P1;PMS_P2;Temp;Humidity;BMP_temperature;BMP_pressure;BME280_temperature;BME280_humidity;BME280_pressure;Samples;Min_cycle;Max_cycle;Signal;HPM_P1;HPM_P2
2022/08/23 00:02:26;;;;;;;12.18;5.93;;;;;;;16.99;100.00;101183.53;5203225;28;20030;-66
2022/08/23 00:04:57;;;;;;;9.80;5.70;;;;;;;16.93;100.00;101175.19;5204064;28;20026;-66
2022/08/23 00:07:28;;;;;;;10.88;5.85;;;;;;;16.91;99.69;101169.94;5201055;28;20040;-67
2022/08/23 00:10:00;;;;;;;9.40;5.95;;;;;;;16.96;100.00;101175.72;5202788;28;20372;-66
2022/08/23 00:12:31;;;;;;;10.00;5.75;;;;;;;16.83;100.00;101178.78;5203195;28;20521;-66
2022/08/23 00:15:04;;;;;;;10.98;5.72;;;;;;;16.81;100.00;101182.59;5206520;28;20153;-67
2022/08/23 00:17:36;;;;;;;9.80;6.03;;;;;;;16.81;100.00;101174.50;5203982;28;20037;-66
2022/08/23 00:20:10;;;;;;;12.10;5.72;;;;;;;16.78;100.00;101174.81;5207982;28;20038;-66
2022/08/23 00:22:41;;;;;;;10.50;6.00;;;;;;;16.84;100.00;101174.25;5200656;28;20559;-67
2022/08/23 00:25:14;;;;;;;9.05;5.70;;;;;;;16.75;100.00;101167.03;5214165;28;20033;-66
2022/08/23 00:27:45;;;;;;;12.40;6.53;;;;;;;16.71;100.00;101176.41;5199386;28;20042;-66
2022/08/23 00:30:17;;;;;;;9.98;6.25;;;;;;;16.71;100.00;101184.50;5201911;28;20038;-66
2022/08/23 00:32:49;;;;;;;8.43;5.75;;;;;;;16.66;100.00;101183.09;5205134;28;20078;-66
2022/08/23 00:35:20;;;;;;;14.13;6.63;;;;;;;16.60;100.00;101178.28;5204872;28;20033;-67
2022/08/23 00:37:52;;;;;;;10.73;6.07;;;;;;;16.60;100.00;101167.50;5202252;28;20038;-67
2022/08/23 00:40:23;;;;;;;12.10;6.47;;;;;;;16.55;100.00;101174.34;5199751;28;20734;-67
2022/08/23 00:48:49;;;;;;;9.30;6.70;;;;;;;16.49;100.00;101172.25;5198749;28;20033;-66
2022/08/23 00:51:28;;;;;;;9.57;6.10;;;;;;;16.47;100.00;101183.16;5204164;28;20705;-66
2022/08/23 00:54:00;;;;;;;8.85;6.10;;;;;;;16.42;100.00;101175.53;5196988;28;20029;-67
2022/08/23 00:56:33;;;;;;;11.43;6.28;;;;;;;16.41;100.00;101184.59;5198027;28;20392;-67
2022/08/23 00:59:06;;;;;;;8.70;6.13;;;;;;;16.40;100.00;101177.53;5203103;28;20132;-67
2022/08/23 01:01:38;;;;;;;11.35;6.20;;;;;;;16.42;100.00;101178.22;5205187;28;20038;-67
2022/08/23 01:04:11;;;;;;;11.70;6.50;;;;;;;16.34;100.00;101183.50;5205611;28;20470;-66
2022/08/23 01:07:14;;;;;;;9.82;6.70;;;;;;;16.36;100.00;101184.22;5202067;28;20087;-67
2022/08/23 01:09:48;;;;;;;10.27;6.35;;;;;;;16.28;100.00;101192.19;5193350;28;20303;-67
2022/08/23 01:12:27;;;;;;;10.38;6.75;;;;;;;16.26;100.00;101184.25;5202066;28;20160;-66
2022/08/23 01:15:16;;;;;;;9.88;6.60;;;;;;;16.25;100.00;101189.78;5203675;28;20090;-66
2022/08/23 01:18:01;;;;;;;12.38;6.28;;;;;;;16.26;100.00;101183.38;5197065;28;20087;-66
2022/08/23 01:20:44;;;;;;;9.23;6.47;;;;;;;16.18;100.00;101176.03;5203742;28;20040;-66
2022/08/23 01:23:40;;;;;;;10.60;6.05;;;;;;;16.20;100.00;101184.84;5204966;28;20034;-67
2022/08/23 01:26:14;;;;;;;9.55;5.97;;;;;;;16.16;100.00;101188.78;5217669;28;20068;-67
2022/08/23 01:28:46;;;;;;;10.82;6.18;;;;;;;16.20;100.00;101182.16;5201478;28;20033;-66
2022/08/23 01:31:18;;;;;;;9.32;5.97;;;;;;;16.13;100.00;101188.22;5201188;28;20403;-66
2022/08/23 01:33:55;;;;;;;10.40;6.03;;;;;;;16.12;100.00;101194.63;5203692;28;20022;-66
2022/08/23 01:36:28;;;;;;;8.50;6.07;;;;;;;16.13;100.00;101190.91;5205052;28;20048;-66
2022/08/23 01:39:00;;;;;;;11.02;7.22;;;;;;;16.22;100.00;101195.44;5198930;28;20033;-67
2022/08/23 01:41:31;;;;;;;10.18;5.68;;;;;;;16.12;100.00;101190.06;5202089;28;20057;-67
2022/08/23 01:44:04;;;;;;;9.05;6.10;;;;;;;16.07;100.00;101195.91;5203391;28;20037;-66
2022/08/23 01:46:36;;;;;;;10.43;6.22;;;;;;;16.11;100.00;101199.16;5202031;28;20060;-66
2022/08/23 01:49:08;;;;;;;10.02;6.10;;;;;;;16.07;100.00;101198.59;5199024;28;20273;-66
2022/08/23 01:51:39;;;;;;;9.82;5.55;;;;;;;16.12;100.00;101198.16;5205341;28;20037;-67
2022/08/23 01:54:11;;;;;;;7.88;5.32;;;;;;;16.06;100.00;101204.13;5200923;28;20037;-66
2022/08/23 01:56:42;;;;;;;8.85;5.90;;;;;;;16.07;100.00;101198.59;5203416;28;20026;-66
2022/08/23 01:59:14;;;;;;;9.77;5.90;;;;;;;16.09;100.00;101195.78;5204321;28;20039;-67
2022/08/23 02:01:46;;;;;;;11.15;6.30;;;;;;;16.10;100.00;101193.91;5201932;28;20029;-67
2022/08/23 02:04:17;;;;;;;9.90;6.38;;;;;;;16.11;100.00;101192.91;5205119;28;20106;-66
2022/08/23 02:06:48;;;;;;;9.65;6.10;;;;;;;16.05;100.00;101183.56;5214068;28;20026;-67
2022/08/23 02:09:20;;;;;;;11.32;6.30;;;;;;;16.17;100.00;101190.50;5209110;28;20130;-67
2022/08/23 02:11:52;;;;;;;10.63;6.32;;;;;;;16.11;100.00;101192.91;5214363;28;20502;-66
2022/08/23 02:14:23;;;;;;;11.07;6.40;;;;;;;16.19;100.00;101191.19;5206996;28;20026;-67
2022/08/23 02:16:55;;;;;;;11.88;6.50;;;;;;;16.14;100.00;101196.16;5207427;28;20030;-66
2022/08/23 02:19:26;;;;;;;9.38;6.55;;;;;;;16.16;100.00;101196.03;5211550;28;20048;-67
2022/08/23 02:21:57;;;;;;;13.02;6.53;;;;;;;16.11;100.00;101196.47;5207002;28;20057;-67
2022/08/23 02:24:30;;;;;;;9.70;6.40;;;;;;;16.21;100.00;101191.91;5214730;28;20079;-67
2022/08/23 02:27:03;;;;;;;12.63;6.20;;;;;;;16.15;100.00;101195.19;5207047;28;20034;-67
2022/08/23 02:29:35;;;;;;;12.55;7.00;;;;;;;16.17;100.00;101192.34;5199664;28;20130;-66
2022/08/23 02:32:07;;;;;;;10.13;6.30;;;;;;;16.13;100.00;101186.41;5206420;28;20479;-67
2022/08/23 02:34:40;;;;;;;7.95;6.07;;;;;;;16.16;100.00;101193.34;5204905;28;20062;-67
2022/08/23 02:37:13;;;;;;;12.13;6.90;;;;;;;16.25;100.00;101182.53;5206835;28;20033;-66
2022/08/23 02:39:44;;;;;;;12.75;6.68;;;;;;;16.16;100.00;101187.94;5206718;28;20058;-66
2022/08/23 02:42:16;;;;;;;14.05;6.88;;;;;;;16.22;100.00;101190.06;5200633;28;20460;-66
2022/08/23 02:44:47;;;;;;;11.00;6.80;;;;;;;16.22;100.00;101184.66;5205333;28;20864;-67
2022/08/23 02:47:19;;;;;;;9.77;7.07;;;;;;;16.25;100.00;101197.84;5202338;28;20058;-66
2022/08/23 02:49:50;;;;;;;9.90;6.80;;;;;;;16.24;100.00;101198.81;5201900;28;20244;-66
2022/08/23 02:52:22;;;;;;;12.05;7.80;;;;;;;16.25;100.00;101190.63;5206560;28;20164;-67
2022/08/23 02:54:53;;;;;;;12.65;7.50;;;;;;;16.27;100.00;101204.78;5207110;28;20556;-66
2022/08/23 02:57:25;;;;;;;11.15;7.43;;;;;;;16.29;100.00;101201.94;5203150;28;20033;-67
2022/08/23 02:59:57;;;;;;;10.10;6.65;;;;;;;16.24;100.00;101199.69;5200031;28;20038;-66
2022/08/23 03:02:28;;;;;;;11.35;6.88;;;;;;;16.26;100.00;101204.91;5202047;28;20126;-66
2022/08/23 03:04:59;;;;;;;9.60;6.57;;;;;;;16.30;100.00;101200.97;5202617;28;20036;-66
2022/08/23 03:07:30;;;;;;;11.18;7.15;;;;;;;16.25;100.00;101209.47;5207611;28;20346;-67
2022/08/23 03:10:04;;;;;;;9.15;7.18;;;;;;;16.29;100.00;101201.94;5201909;28;20440;-66
2022/08/23 03:12:35;;;;;;;10.63;7.27;;;;;;;16.38;100.00;101206.47;5202460;28;20037;-66
2022/08/23 03:15:07;;;;;;;13.98;7.80;;;;;;;16.30;100.00;101208.16;5201806;28;20030;-66
2022/08/23 03:17:39;;;;;;;12.25;7.32;;;;;;;16.29;100.00;101206.50;5203740;28;20059;-66
2022/08/23 03:20:10;;;;;;;15.82;7.97;;;;;;;16.27;100.00;101204.78;5203817;28;20858;-66
2022/08/23 03:22:41;;;;;;;13.25;7.85;;;;;;;16.25;100.00;101208.63;5203126;28;20125;-67
2022/08/23 03:25:12;;;;;;;11.57;7.82;;;;;;;16.32;100.00;101206.19;5209241;28;20029;-66
2022/08/23 03:27:44;;;;;;;12.75;7.95;;;;;;;16.32;100.00;101209.75;5212937;28;20018;-67
2022/08/23 03:30:15;;;;;;;10.85;8.77;;;;;;;16.30;100.00;101222.50;5198012;28;20026;-66
2022/08/23 03:32:46;;;;;;;12.85;8.73;;;;;;;16.33;100.00;101216.81;5200420;28;20038;-67
2022/08/23 03:35:18;;;;;;;13.63;9.68;;;;;;;16.37;100.00;101218.22;5201554;28;20045;-66
2022/08/23 03:37:50;;;;;;;11.48;8.70;;;;;;;16.38;100.00;101214.53;5203335;28;20072;-66
2022/08/23 03:40:22;;;;;;;11.80;8.10;;;;;;;16.40;100.00;101225.16;5200847;28;20038;-66
2022/08/23 03:42:54;;;;;;;15.13;8.95;;;;;;;16.43;100.00;101222.16;5204172;28;20083;-66
2022/08/23 03:45:25;;;;;;;13.02;8.40;;;;;;;16.50;100.00;101211.66;5212876;28;20037;-66
2022/08/23 03:47:56;;;;;;;10.65;8.82;;;;;;;16.44;100.00;101211.25;5200354;28;20115;-66
2022/08/23 03:50:28;;;;;;;11.90;8.98;;;;;;;16.46;100.00;101219.19;5210585;28;20042;-66
2022/08/23 03:52:59;;;;;;;13.55;9.93;;;;;;;16.39;100.00;101216.22;5199798;28;20030;-66
2022/08/23 03:55:31;;;;;;;15.73;9.55;;;;;;;16.38;100.00;101219.94;5198104;28;20398;-67
2022/08/23 03:58:02;;;;;;;12.50;9.35;;;;;;;16.44;100.00;101222.03;5203189;28;20449;-67
2022/08/23 04:00:33;;;;;;;12.07;8.95;;;;;;;16.44;100.00;101226.56;5195974;28;20605;-67
2022/08/23 04:03:05;;;;;;;13.38;9.30;;;;;;;16.41;100.00;101225.00;5208249;28;20053;-67
2022/08/23 04:05:36;;;;;;;12.25;8.95;;;;;;;16.35;100.00;101225.59;5219589;28;20118;-66
2022/08/23 04:08:09;;;;;;;12.77;9.20;;;;;;;16.39;100.00;101224.31;5201820;28;20030;-66
2022/08/23 04:10:40;;;;;;;12.68;9.70;;;;;;;16.40;100.00;101230.56;5213665;28;20060;-67
2022/08/23 04:13:11;;;;;;;10.77;8.68;;;;;;;16.40;100.00;101231.41;5200366;28;20469;-66
2022/08/23 04:15:43;;;;;;;13.68;9.82;;;;;;;16.45;100.00;101229.13;5200214;28;20510;-66
2022/08/23 04:18:14;;;;;;;12.80;9.25;;;;;;;16.38;100.00;101232.53;5207503;28;20478;-66
2022/08/23 04:20:46;;;;;;;14.52;9.88;;;;;;;16.37;100.00;101231.69;5197501;28;20395;-67
2022/08/23 04:23:18;;;;;;;15.68;9.85;;;;;;;16.37;100.00;101236.22;5199938;28;20029;-67
2022/08/23 04:25:49;;;;;;;14.05;9.43;;;;;;;16.34;100.00;101228.41;5210491;28;20045;-66
2022/08/23 04:28:21;;;;;;;14.50;9.57;;;;;;;16.35;100.00;101233.66;5202215;28;20384;-66
2022/08/23 04:30:52;;;;;;;12.98;9.15;;;;;;;16.33;100.00;101237.50;5200634;28;20030;-66
2022/08/23 04:33:24;;;;;;;16.02;9.70;;;;;;;16.31;100.00;101247.59;5206066;28;20168;-67
2022/08/23 04:35:55;;;;;;;13.50;10.10;;;;;;;16.41;100.00;101245.69;5211957;28;20022;-66
2022/08/23 04:38:27;;;;;;;16.02;9.95;;;;;;;16.39;100.00;101251.22;5201147;28;20037;-67
2022/08/23 04:43:49;;;;;;;14.55;10.40;;;;;;;16.33;100.00;101242.91;5211657;28;20231;-66
2022/08/23 04:46:22;;;;;;;15.27;10.27;;;;;;;16.37;100.00;101245.13;5201551;28;20054;-67
2022/08/23 04:48:53;;;;;;;18.70;11.38;;;;;;;16.40;100.00;101250.25;5204605;28;20415;-67
2022/08/23 04:51:25;;;;;;;14.70;11.13;;;;;;;16.37;100.00;101247.00;5202765;28;20036;-66
2022/08/23 04:53:56;;;;;;;17.83;11.00;;;;;;;16.36;100.00;101254.22;5202605;28;20069;-66
2022/08/23 04:56:27;;;;;;;15.75;10.80;;;;;;;16.40;100.00;101252.94;5205691;28;20040;-66
2022/08/23 04:58:59;;;;;;;16.08;11.43;;;;;;;16.44;100.00;101265.13;5199717;28;20030;-66
2022/08/23 05:01:30;;;;;;;14.02;9.77;;;;;;;16.42;100.00;101267.09;5207520;28;20342;-66
2022/08/23 05:04:03;;;;;;;15.02;11.07;;;;;;;16.50;100.00;101265.53;5184913;28;21216;-67
2022/08/23 05:06:35;;;;;;;15.30;11.23;;;;;;;16.52;100.00;101258.16;5206142;28;20391;-66
2022/08/23 05:09:06;;;;;;;17.02;10.48;;;;;;;16.54;100.00;101258.88;5205847;28;20030;-67
2022/08/23 05:11:38;;;;;;;16.05;11.57;;;;;;;16.59;100.00;101267.38;5204705;28;20091;-66
2022/08/23 05:14:09;;;;;;;13.82;10.88;;;;;;;16.59;100.00;101268.22;5205934;28;20034;-67
2022/08/23 05:16:40;;;;;;;13.85;11.00;;;;;;;16.64;100.00;101270.44;5207472;28;20030;-66
2022/08/23 05:19:12;;;;;;;13.88;10.88;;;;;;;16.63;100.00;101275.00;5206837;28;20033;-66
2022/08/23 05:21:44;;;;;;;14.75;11.20;;;;;;;16.69;100.00;101267.34;5203200;28;20049;-67
2022/08/23 05:24:15;;;;;;;17.40;12.13;;;;;;;16.75;100.00;101274.81;5208288;28;20120;-67
2022/08/23 05:26:46;;;;;;;19.05;11.65;;;;;;;16.76;100.00;101265.72;5209354;28;20029;-66
2022/08/23 05:29:20;;;;;;;17.67;12.05;;;;;;;16.84;100.00;101268.59;5207011;28;20491;-66
2022/08/23 05:31:51;;;;;;;19.25;12.52;;;;;;;16.91;100.00;101274.22;5212221;28;20037;-66
2022/08/23 05:34:23;;;;;;;17.17;11.52;;;;;;;17.01;100.00;101272.34;5208472;28;20026;-66
2022/08/23 05:36:54;;;;;;;12.48;11.02;;;;;;;17.05;100.00;101276.44;5210738;28;20034;-67
2022/08/23 05:39:25;;;;;;;16.90;11.98;;;;;;;17.14;100.00;101274.69;5205187;28;20033;-66
2022/08/23 05:41:57;;;;;;;15.25;11.32;;;;;;;17.18;100.00;101290.44;5206882;28;20053;-66
2022/08/23 05:44:28;;;;;;;17.65;11.38;;;;;;;17.23;100.00;101295.34;5202706;28;20582;-66
2022/08/23 05:46:59;;;;;;;13.98;11.43;;;;;;;17.31;100.00;101300.84;5207919;28;20060;-67
2022/08/23 05:49:35;;;;;;;15.85;11.48;;;;;;;17.39;100.00;101305.47;5207862;28;20046;-67
2022/08/23 05:52:10;;;;;;;16.42;11.25;;;;;;;17.46;100.00;101311.97;5198544;28;20034;-67
2022/08/23 05:54:42;;;;;;;16.00;9.75;;;;;;;17.51;100.00;101301.59;5211304;28;20034;-66
2022/08/23 05:57:13;;;;;;;13.43;9.35;;;;;;;17.64;100.00;101302.06;5206636;28;20033;-67
2022/08/23 05:59:44;;;;;;;15.90;9.88;;;;;;;17.69;100.00;101304.31;5209073;28;20033;-66
2022/08/23 06:02:15;;;;;;;16.10;10.50;;;;;;;17.79;100.00;101305.06;5211675;28;20335;-67
2022/08/23 06:04:47;;;;;;;13.98;10.10;;;;;;;17.86;100.00;101305.34;5207520;28;20437;-66
2022/08/23 06:07:18;;;;;;;16.17;11.13;;;;;;;17.88;100.00;101307.91;5211005;28;20083;-66
2022/08/23 06:09:49;;;;;;;14.98;9.68;;;;;;;18.04;100.00;101308.03;5209085;28;20036;-66
2022/08/23 06:12:21;;;;;;;14.65;10.00;;;;;;;18.06;100.00;101306.03;5208774;28;20041;-66
2022/08/23 06:14:52;;;;;;;16.55;10.52;;;;;;;18.10;100.00;101312.84;5212553;28;20112;-67
2022/08/23 06:17:23;;;;;;;14.38;10.25;;;;;;;18.18;100.00;101303.97;5216462;28;20144;-66
2022/08/23 06:19:56;;;;;;;14.88;10.38;;;;;;;18.09;100.00;101311.13;5208576;28;20060;-66
2022/08/23 06:22:28;;;;;;;15.60;11.20;;;;;;;18.17;100.00;101316.59;5210654;28;20040;-67
2022/08/23 06:25:00;;;;;;;15.65;11.48;;;;;;;18.22;100.00;101322.38;5207049;28;20034;-67
2022/08/23 06:27:31;;;;;;;16.73;11.40;;;;;;;18.17;100.00;101327.41;5206093;28;20111;-66
2022/08/23 06:30:03;;;;;;;13.50;10.75;;;;;;;18.27;100.00;101319.22;5203678;28;20036;-67
2022/08/23 06:32:34;;;;;;;16.58;10.55;;;;;;;18.36;100.00;101317.44;5213516;28;20040;-67
2022/08/23 06:35:05;;;;;;;13.93;11.00;;;;;;;18.39;100.00;101317.97;5200805;28;20053;-67
2022/08/23 06:37:38;;;;;;;12.38;10.10;;;;;;;18.35;100.00;101315.72;5198076;28;20100;-67
2022/08/23 06:40:09;;;;;;;17.05;10.60;;;;;;;18.32;99.56;101318.75;5205046;28;20095;-67
2022/08/23 06:42:40;;;;;;;17.13;10.60;;;;;;;18.31;100.00;101323.28;5202096;28;20030;-66
2022/08/23 06:45:13;;;;;;;15.48;11.63;;;;;;;18.33;100.00;101317.75;5202395;28;20033;-66
2022/08/23 06:47:44;;;;;;;16.27;11.25;;;;;;;18.29;100.00;101316.34;5199959;28;20046;-67
2022/08/23 06:50:17;;;;;;;18.98;11.38;;;;;;;18.33;100.00;101318.59;5202599;28;20558;-67
2022/08/23 06:52:49;;;;;;;16.70;11.25;;;;;;;18.36;96.75;101315.56;5201588;28;20079;-66
2022/08/23 06:55:21;;;;;;;17.52;12.57;;;;;;;18.37;100.00;101313.72;5210918;28;20109;-66
2022/08/23 06:57:52;;;;;;;16.27;12.65;;;;;;;18.48;94.75;101318.88;5202779;28;20353;-65
2022/08/23 07:00:23;;;;;;;17.08;11.88;;;;;;;18.53;98.88;101313.00;5211151;28;20754;-64
2022/08/23 07:02:54;;;;;;;16.98;12.90;;;;;;;18.58;93.40;101311.53;5213935;28;20056;-65
2022/08/23 07:05:26;;;;;;;17.30;12.88;;;;;;;18.67;95.32;101308.88;5206445;28;20029;-65
2022/08/23 07:07:57;;;;;;;17.48;12.85;;;;;;;18.69;94.79;101320.38;5203923;28;20046;-65
2022/08/23 07:10:29;;;;;;;14.70;12.30;;;;;;;18.73;98.05;101321.75;5202111;28;20061;-66
2022/08/23 07:13:02;;;;;;;22.10;12.80;;;;;;;18.77;95.14;101323.13;5212593;28;20033;-65
2022/08/23 07:15:33;;;;;;;17.77;13.10;;;;;;;18.88;92.31;101322.03;5220262;28;20030;-65
2022/08/23 07:18:04;;;;;;;18.50;12.93;;;;;;;18.88;93.36;101322.88;5206923;28;20034;-65
2022/08/23 07:20:36;;;;;;;14.68;12.63;;;;;;;18.99;91.54;101330.72;5215466;28;20090;-65
2022/08/23 07:23:07;;;;;;;16.55;12.50;;;;;;;18.95;96.35;101329.34;5211234;28;20061;-65
2022/08/23 07:25:39;;;;;;;15.30;13.45;;;;;;;19.11;90.50;101330.44;5215373;28;20065;-65
2022/08/23 07:28:11;;;;;;;19.25;13.75;;;;;;;19.16;91.80;101330.81;5214766;28;20158;-65
2022/08/23 07:30:42;;;;;;;16.98;12.90;;;;;;;19.31;90.28;101331.03;5194827;28;20494;-65
2022/08/23 07:33:13;;;;;;;16.88;12.82;;;;;;;19.32;91.66;101346.28;5214410;28;20025;-65
2022/08/23 07:35:47;;;;;;;18.20;12.48;;;;;;;19.49;89.44;101342.63;5210011;28;20079;-65
2022/08/23 07:38:18;;;;;;;18.67;13.05;;;;;;;19.56;89.42;101340.13;5204788;28;20102;-65
2022/08/23 07:40:49;;;;;;;21.52;12.85;;;;;;;19.71;88.30;101352.00;5205246;28;20538;-65
2022/08/23 07:43:21;;;;;;;18.75;12.95;;;;;;;19.84;88.27;101342.56;5206897;28;20041;-65
2022/08/23 07:45:52;;;;;;;14.02;11.30;;;;;;;19.93;89.87;101344.28;5204627;28;20053;-65
2022/08/23 07:48:23;;;;;;;17.25;11.25;;;;;;;19.97;88.75;101357.31;5207280;28;20025;-65
2022/08/23 07:50:57;;;;;;;18.75;12.30;;;;;;;20.06;87.53;101354.63;5207599;28;20410;-66
2022/08/23 07:53:29;;;;;;;;;;;;;;;20.08;91.16;101353.44;5218872;28;20115;-66
2022/08/23 07:56:04;;;;;;;19.42;12.50;;;;;;;20.23;85.21;101350.06;5207432;28;19921;-66
2022/08/23 07:58:36;;;;;;;18.35;12.48;;;;;;;20.33;87.00;101361.59;5214367;28;20025;-66
2022/08/23 08:01:21;;;;;;;20.70;11.68;;;;;;;20.52;85.97;101353.13;5207590;28;20763;-66
2022/08/23 08:03:56;;;;;;;17.90;12.80;;;;;;;20.57;84.48;101358.88;5213830;28;20031;-66
2022/08/23 08:06:38;;;;;;;18.30;12.82;;;;;;;20.73;84.90;101360.75;5202589;28;20681;-66
2022/08/23 08:09:11;;;;;;;17.02;12.50;;;;;;;20.91;81.90;101362.44;5207148;28;20030;-66
2022/08/23 08:11:46;;;;;;;20.90;11.85;;;;;;;20.94;83.13;101370.19;5207851;28;20036;-66
2022/08/23 08:14:17;;;;;;;19.40;12.10;;;;;;;21.17;82.08;101367.63;5203299;28;20057;-66
2022/08/23 08:16:49;;;;;;;17.98;12.15;;;;;;;21.32;81.05;101376.75;5202423;28;20105;-66
2022/08/23 08:19:21;;;;;;;18.45;11.27;;;;;;;21.39;80.67;101367.88;5207011;28;20034;-66
2022/08/23 08:21:52;;;;;;;16.42;11.85;;;;;;;21.43;78.45;101377.38;5208720;28;20053;-67
2022/08/23 08:24:23;;;;;;;15.00;11.23;;;;;;;21.46;79.68;101379.78;5206666;28;20414;-66
2022/08/23 08:26:55;;;;;;;15.50;10.65;;;;;;;21.53;79.13;101380.75;5211816;28;20512;-66
2022/08/23 08:29:26;;;;;;;18.35;11.40;;;;;;;21.60;79.74;101370.88;5202263;28;20411;-66
2022/08/23 08:31:57;;;;;;;15.52;10.98;;;;;;;21.83;79.27;101375.50;5203154;28;20026;-66
2022/08/23 08:34:29;;;;;;;18.27;11.55;;;;;;;21.98;80.48;101375.59;5208032;28;20065;-66
2022/08/23 08:37:00;;;;;;;21.42;11.70;;;;;;;21.98;78.56;101376.44;5201890;28;20181;-66
2022/08/23 08:39:32;;;;;;;14.82;10.35;;;;;;;22.17;79.07;101377.84;5208167;28;20033;-66
2022/08/23 08:42:15;;;;;;;20.38;10.30;;;;;;;22.22;80.49;101375.41;5205983;28;20029;-66
2022/08/23 08:44:56;;;;;;;17.55;10.73;;;;;;;22.32;79.32;101377.91;5208614;28;20381;-66
2022/08/23 08:47:36;;;;;;;17.42;9.02;;;;;;;22.52;76.68;101381.84;5201562;28;20089;-66
2022/08/23 08:50:33;;;;;;;18.90;8.27;;;;;;;22.54;78.20;101383.53;5212766;28;20056;-66
2022/08/23 08:53:09;;;;;;;15.98;8.57;;;;;;;22.69;75.01;101387.13;5195637;28;20050;-66
2022/08/23 08:55:47;;;;;;;19.55;8.45;;;;;;;22.80;75.71;101381.25;5203474;28;20052;-66
2022/08/23 08:58:25;;;;;;;14.95;9.13;;;;;;;22.96;73.25;101385.69;5206777;28;20067;-65
2022/08/23 09:00:57;;;;;;;16.42;7.40;;;;;;;22.86;76.55;101387.84;5202867;28;20033;-65
2022/08/23 09:03:33;;;;;;;19.17;7.40;;;;;;;23.14;72.90;101392.66;5205772;28;21430;-66
2022/08/23 09:06:29;;;;;;;12.52;6.25;;;;;;;23.28;72.90;101397.28;5202785;28;20048;-65
2022/08/23 09:09:29;;;;;;;11.80;6.53;;;;;;;23.41;73.43;101399.31;5197646;28;20063;-66
2022/08/23 09:12:18;;;;;;;15.57;6.78;;;;;;;23.63;72.05;101395.66;5201625;28;20550;-65
2022/08/23 09:15:14;;;;;;;12.20;6.28;;;;;;;23.79;71.91;101396.50;5205860;28;20080;-65
2022/08/23 09:17:51;;;;;;;11.88;5.47;;;;;;;23.83;69.00;101398.63;5208357;28;20472;-65
2022/08/23 09:20:28;;;;;;;12.68;4.50;;;;;;;24.00;68.59;101393.81;5201756;28;20041;-65
2022/08/23 09:23:16;;;;;;;8.55;3.88;;;;;;;24.13;69.30;101401.28;5202770;28;20029;-65
2022/08/23 09:25:59;;;;;;;7.32;2.90;;;;;;;24.30;67.33;101403.75;5212010;28;20100;-66
2022/08/23 09:28:35;;;;;;;9.90;3.97;;;;;;;24.41;62.94;101400.50;5207321;28;20116;-65
2022/08/23 09:31:07;;;;;;;10.80;3.95;;;;;;;24.50;63.62;101401.22;5208732;28;20038;-66
2022/08/23 09:33:41;;;;;;;14.25;4.88;;;;;;;24.41;65.75;101411.41;5215299;28;20073;-66
2022/08/23 09:36:25;;;;;;;10.98;4.35;;;;;;;24.62;66.04;101410.59;5202144;28;20536;-66
2022/08/23 09:38:59;;;;;;;10.37;4.07;;;;;;;24.82;63.85;101405.31;5204027;28;20544;-66
2022/08/23 09:41:36;;;;;;;9.30;4.80;;;;;;;24.87;61.79;101405.53;5205159;28;20597;-65
2022/08/23 09:44:13;;;;;;;8.38;4.72;;;;;;;24.80;66.63;101400.06;5199497;28;20030;-65
2022/08/23 09:46:44;;;;;;;11.40;5.38;;;;;;;25.01;62.53;101398.31;5207520;28;20425;-65
2022/08/23 09:49:28;;;;;;;11.85;5.22;;;;;;;24.95;63.64;101399.09;5209563;28;20060;-66
2022/08/23 09:52:25;;;;;;;10.48;4.30;;;;;;;25.08;65.83;101396.44;5209671;28;20076;-65
2022/08/23 09:55:28;;;;;;;7.60;3.15;;;;;;;25.19;65.13;101400.53;5217974;28;20154;-65
2022/08/23 09:58:04;;;;;;;8.00;2.40;;;;;;;25.22;60.84;101401.00;5191434;28;20042;-65
2022/08/23 10:00:36;;;;;;;9.40;3.22;;;;;;;25.15;60.29;101391.03;5214117;28;20034;-65
2022/08/23 10:03:24;;;;;;;7.50;2.70;;;;;;;25.16;63.61;101385.38;5206749;28;20394;-65
2022/08/23 10:05:58;;;;;;;8.15;3.00;;;;;;;25.28;60.28;101385.69;5210884;28;20054;-65
2022/08/23 10:08:32;;;;;;;6.45;2.17;;;;;;;25.21;61.15;101380.16;5208214;28;20473;-65
2022/08/23 10:11:14;;;;;;;8.23;2.33;;;;;;;25.23;63.07;101380.81;5206822;28;20034;-65
2022/08/23 10:13:46;;;;;;;7.53;2.85;;;;;;;25.36;60.61;101379.22;5209299;28;20038;-65
2022/08/23 10:16:36;;;;;;;7.32;2.10;;;;;;;25.27;61.59;101389.47;5209338;28;20033;-64
2022/08/23 10:19:27;;;;;;;8.05;2.42;;;;;;;25.29;61.56;101378.34;5211654;28;20036;-65
2022/08/23 10:22:02;;;;;;;7.45;2.15;;;;;;;25.29;58.38;101376.44;5211530;28;20037;-65
2022/08/23 10:24:44;;;;;;;5.25;1.92;;;;;;;25.35;57.27;101377.53;5206355;28;20056;-65
2022/08/23 10:30:58;;;;;;;8.85;2.80;;;;;;;25.39;58.58;101384.25;5209237;28;20037;-66
2022/08/23 10:34:31;;;;;;;7.22;2.65;;;;;;;25.54;60.77;101384.13;5212677;28;20034;-66
2022/08/23 10:37:22;;;;;;;7.45;2.40;;;;;;;25.59;60.48;101384.38;5227852;28;20075;-66
2022/08/23 10:40:09;;;;;;;7.47;2.33;;;;;;;25.72;58.80;101378.97;5230560;28;20040;-66
2022/08/23 10:42:54;;;;;;;7.30;2.05;;;;;;;25.90;59.49;101370.16;5214763;28;20118;-66
2022/08/23 10:45:30;;;;;;;7.35;1.88;;;;;;;25.85;58.31;101380.03;5208783;28;20045;-66
2022/08/23 10:48:28;;;;;;;7.45;2.13;;;;;;;25.79;57.04;101377.09;5205869;28;20168;-66
2022/08/23 10:51:15;;;;;;;6.18;2.10;;;;;;;25.78;56.27;101371.84;5210158;28;20082;-66
2022/08/23 10:53:58;;;;;;;7.43;1.98;;;;;;;25.90;60.00;101374.81;5207939;28;20731;-65
2022/08/23 10:56:30;;;;;;;4.43;1.80;;;;;;;26.14;54.91;101367.97;5209936;28;20056;-65
2022/08/23 10:59:22;;;;;;;4.47;1.83;;;;;;;26.15;57.07;101356.78;5208726;28;20469;-64
2022/08/23 11:02:25;;;;;;;6.10;2.00;;;;;;;26.35;57.65;101362.31;5207158;28;20037;-65
2022/08/23 11:05:25;;;;;;;5.47;2.05;;;;;;;26.30;57.01;101363.97;5204583;28;20563;-65
2022/08/23 11:08:10;;;;;;;6.82;2.08;;;;;;;26.41;57.70;101361.47;5209800;28;20060;-65
2022/08/23 11:10:47;;;;;;;6.45;2.13;;;;;;;26.48;55.41;101366.06;5216489;28;20038;-65
2022/08/23 11:13:25;;;;;;;6.85;2.30;;;;;;;26.58;54.22;101361.88;5203845;28;20041;-65
2022/08/23 11:16:11;;;;;;;5.90;1.98;;;;;;;26.57;56.10;101356.63;5205239;28;20416;-65
2022/08/23 11:18:48;;;;;;;8.40;2.38;;;;;;;26.79;55.70;101360.84;5209444;28;20026;-65
2022/08/23 11:21:30;;;;;;;5.45;1.92;;;;;;;26.65;53.77;101361.91;5215130;28;20029;-64
2022/08/23 11:24:01;;;;;;;5.55;2.05;;;;;;;26.34;53.51;101365.25;5205446;28;20038;-65
2022/08/23 11:26:36;;;;;;;4.83;2.00;;;;;;;26.49;53.03;101360.41;5206493;28;20506;-65
2022/08/23 11:29:10;;;;;;;5.65;2.10;;;;;;;26.45;54.34;101361.03;5202466;28;21028;-65
2022/08/23 11:31:47;;;;;;;6.65;2.13;;;;;;;26.45;54.17;101361.88;5220120;28;20468;-65
2022/08/23 11:34:24;;;;;;;9.32;2.30;;;;;;;26.36;53.81;101358.50;5208362;28;20104;-65
2022/08/23 11:37:18;;;;;;;7.90;2.20;;;;;;;26.49;55.58;101363.13;5210114;28;20041;-65
2022/08/23 11:39:58;;;;;;;;;;;;;;;26.52;56.99;101359.13;5228483;28;20095;-65
2022/08/23 11:42:38;;;;;;;4.22;1.60;;;;;;;26.69;54.59;101360.41;5214271;28;19925;-66
2022/08/23 11:45:34;;;;;;;5.47;1.77;;;;;;;26.73;55.56;101363.56;5203039;28;20400;-65
2022/08/23 11:48:30;;;;;;;5.78;1.80;;;;;;;26.75;54.23;101362.31;5200388;28;20037;-64
2022/08/23 11:51:17;;;;;;;4.18;1.70;;;;;;;26.73;52.55;101361.69;5202447;28;20593;-65
2022/08/23 11:53:57;;;;;;;4.68;2.03;;;;;;;26.89;53.12;101352.19;5206572;28;20036;-65
2022/08/23 11:56:29;;;;;;;7.03;2.03;;;;;;;26.93;54.96;101355.34;5211933;28;20030;-65
2022/08/23 11:59:28;;;;;;;8.48;1.67;;;;;;;27.07;54.28;101353.41;5198782;28;20033;-65
2022/08/23 12:02:30;;;;;;;5.47;1.88;;;;;;;27.04;54.00;101365.66;5207318;28;20038;-65